sensor_id;sensor_type;location;lat;lon;timestamp;P1;durP1;ratioP1;P2;durP2;ratioP2
20241;SDS011;10279;46.388;8.116;2023-10-19T00:00:48;2.50;;;1.33;;
20241;SDS011;10279;46.388;8.116;2023-10-19T00:03:18;1.57;;;0.90;;
20241;SDS011;10279;46.388;8.116;2023-10-19T00:05:45;3.63;;;1.10;;
20241;SDS011;10279;46.388;8.116;2023-10-19T00:08:13;1.40;;;1.20;;
20241;SDS011;10279;46.388;8.116;2023-10-19T00:10:48;1.90;;;0.93;;
20241;SDS011;10279;46.388;8.116;2023-10-19T00:13:31;1.97;;;1.30;;
20241;SDS011;10279;46.388;8.116;2023-10-19T00:15:58;2.23;;;1.00;;
20241;SDS011;10279;46.388;8.116;2023-10-19T00:18:26;3.10;;;1.10;;
20241;SDS011;10279;46.388;8.116;2023-10-19T00:20:54;1.70;;;1.37;;
20241;SDS011;10279;46.388;8.116;2023-10-19T00:23:40;4.07;;;0.90;;
20241;SDS011;10279;46.388;8.116;2023-10-19T00:26:07;2.30;;;1.23;;
20241;SDS011;10279;46.388;8.116;2023-10-19T00:28:44;3.40;;;1.40;;
20241;SDS011;10279;46.388;8.116;2023-10-19T00:31:13;1.80;;;1.30;;
20241;SDS011;10279;46.388;8.116;2023-10-19T00:33:41;2.17;;;1.37;;
20241;SDS011;10279;46.388;8.116;2023-10-19T00:36:08;2.07;;;0.97;;
20241;SDS011;10279;46.388;8.116;2023-10-19T00:38:39;3.37;;;1.10;;
20241;SDS011;10279;46.388;8.116;2023-10-19T00:41:18;1.47;;;1.20;;
20241;SDS011;10279;46.388;8.116;2023-10-19T00:43:50;1.13;;;0.93;;
20241;SDS011;10279;46.388;8.116;2023-10-19T00:46:24;1.33;;;1.20;;
20241;SDS011;10279;46.388;8.116;2023-10-19T00:49:21;1.57;;;1.13;;
20241;SDS011;10279;46.388;8.116;2023-10-19T00:51:53;4.07;;;1.10;;
20241;SDS011;10279;46.388;8.116;2023-10-19T00:54:30;3.57;;;1.03;;
20241;SDS011;10279;46.388;8.116;2023-10-19T00:57:07;2.40;;;1.10;;
20241;SDS011;10279;46.388;8.116;2023-10-19T00:59:39;2.80;;;1.23;;
20241;SDS011;10279;46.388;8.116;2023-10-19T01:02:20;3.00;;;1.60;;
20241;SDS011;10279;46.388;8.116;2023-10-19T01:04:52;2.87;;;1.20;;
20241;SDS011;10279;46.388;8.116;2023-10-19T01:07:28;2.20;;;1.30;;
20241;SDS011;10279;46.388;8.116;2023-10-19T01:09:57;2.90;;;1.43;;
20241;SDS011;10279;46.388;8.116;2023-10-19T01:12:32;3.47;;;1.30;;
20241;SDS011;10279;46.388;8.116;2023-10-19T01:15:01;2.67;;;1.30;;
20241;SDS011;10279;46.388;8.116;2023-10-19T01:17:33;3.17;;;1.70;;
20241;SDS011;10279;46.388;8.116;2023-10-19T01:23:00;1.93;;;1.70;;
20241;SDS011;10279;46.388;8.116;2023-10-19T01:28:25;3.93;;;1.27;;
20241;SDS011;10279;46.388;8.116;2023-10-19T01:31:12;3.97;;;1.50;;
20241;SDS011;10279;46.388;8.116;2023-10-19T01:33:44;2.30;;;1.13;;
20241;SDS011;10279;46.388;8.116;2023-10-19T01:36:12;3.90;;;1.40;;
20241;SDS011;10279;46.388;8.116;2023-10-19T01:39:02;4.40;;;1.20;;
20241;SDS011;10279;46.388;8.116;2023-10-19T01:41:36;4.10;;;1.10;;
20241;SDS011;10279;46.388;8.116;2023-10-19T01:44:04;1.83;;;1.50;;
20241;SDS011;10279;46.388;8.116;2023-10-19T01:46:33;2.07;;;1.30;;
20241;SDS011;10279;46.388;8.116;2023-10-19T01:49:03;2.17;;;1.00;;
20241;SDS011;10279;46.388;8.116;2023-10-19T01:51:33;1.40;;;0.90;;
20241;SDS011;10279;46.388;8.116;2023-10-19T01:54:09;3.40;;;1.10;;
20241;SDS011;10279;46.388;8.116;2023-10-19T01:56:38;2.17;;;1.10;;
20241;SDS011;10279;46.388;8.116;2023-10-19T01:59:09;1.67;;;1.00;;
20241;SDS011;10279;46.388;8.116;2023-10-19T02:01:36;2.30;;;1.00;;
20241;SDS011;10279;46.388;8.116;2023-10-19T02:04:05;4.23;;;1.37;;
20241;SDS011;10279;46.388;8.116;2023-10-19T02:06:35;1.07;;;0.80;;
20241;SDS011;10279;46.388;8.116;2023-10-19T02:11:59;2.33;;;1.10;;
20241;SDS011;10279;46.388;8.116;2023-10-19T02:14:28;1.30;;;1.20;;
20241;SDS011;10279;46.388;8.116;2023-10-19T02:16:56;2.27;;;1.23;;
20241;SDS011;10279;46.388;8.116;2023-10-19T02:19:26;1.97;;;1.00;;
20241;SDS011;10279;46.388;8.116;2023-10-19T02:21:59;2.50;;;0.90;;
20241;SDS011;10279;46.388;8.116;2023-10-19T02:24:30;1.47;;;0.83;;
20241;SDS011;10279;46.388;8.116;2023-10-19T02:26:58;1.07;;;0.90;;
20241;SDS011;10279;46.388;8.116;2023-10-19T02:29:28;0.87;;;0.83;;
20241;SDS011;10279;46.388;8.116;2023-10-19T02:31:55;1.67;;;0.83;;
20241;SDS011;10279;46.388;8.116;2023-10-19T02:34:24;1.27;;;0.80;;
20241;SDS011;10279;46.388;8.116;2023-10-19T02:36:52;3.17;;;1.27;;
20241;SDS011;10279;46.388;8.116;2023-10-19T02:39:20;1.73;;;1.17;;
20241;SDS011;10279;46.388;8.116;2023-10-19T02:41:52;3.70;;;1.13;;
20241;SDS011;10279;46.388;8.116;2023-10-19T02:44:21;2.20;;;1.30;;
20241;SDS011;10279;46.388;8.116;2023-10-19T02:46:55;3.07;;;1.00;;
20241;SDS011;10279;46.388;8.116;2023-10-19T02:49:43;2.43;;;1.10;;
20241;SDS011;10279;46.388;8.116;2023-10-19T02:52:22;2.77;;;0.80;;
20241;SDS011;10279;46.388;8.116;2023-10-19T02:54:50;2.17;;;1.03;;
20241;SDS011;10279;46.388;8.116;2023-10-19T02:57:17;4.97;;;1.60;;
20241;SDS011;10279;46.388;8.116;2023-10-19T02:59:45;4.63;;;1.30;;
20241;SDS011;10279;46.388;8.116;2023-10-19T03:02:13;1.97;;;1.10;;
20241;SDS011;10279;46.388;8.116;2023-10-19T03:04:40;5.17;;;1.30;;
20241;SDS011;10279;46.388;8.116;2023-10-19T03:07:09;3.67;;;1.17;;
20241;SDS011;10279;46.388;8.116;2023-10-19T03:09:39;3.63;;;1.20;;
20241;SDS011;10279;46.388;8.116;2023-10-19T03:12:06;4.43;;;1.20;;
20241;SDS011;10279;46.388;8.116;2023-10-19T03:14:37;1.97;;;1.10;;
20241;SDS011;10279;46.388;8.116;2023-10-19T03:17:05;1.47;;;1.33;;
20241;SDS011;10279;46.388;8.116;2023-10-19T03:19:35;2.83;;;1.37;;
20241;SDS011;10279;46.388;8.116;2023-10-19T03:22:03;1.93;;;1.37;;
20241;SDS011;10279;46.388;8.116;2023-10-19T03:24:32;1.60;;;1.20;;
20241;SDS011;10279;46.388;8.116;2023-10-19T03:27:11;1.50;;;1.17;;
20241;SDS011;10279;46.388;8.116;2023-10-19T03:29:40;2.60;;;1.20;;
20241;SDS011;10279;46.388;8.116;2023-10-19T03:32:14;2.73;;;1.10;;
20241;SDS011;10279;46.388;8.116;2023-10-19T03:34:48;1.90;;;1.00;;
20241;SDS011;10279;46.388;8.116;2023-10-19T03:37:17;1.97;;;1.30;;
20241;SDS011;10279;46.388;8.116;2023-10-19T03:39:47;2.03;;;1.23;;
20241;SDS011;10279;46.388;8.116;2023-10-19T03:42:15;2.77;;;1.80;;
20241;SDS011;10279;46.388;8.116;2023-10-19T03:44:43;2.50;;;1.57;;
20241;SDS011;10279;46.388;8.116;2023-10-19T03:47:16;2.93;;;1.10;;
20241;SDS011;10279;46.388;8.116;2023-10-19T03:49:52;2.57;;;1.40;;
20241;SDS011;10279;46.388;8.116;2023-10-19T03:52:19;1.20;;;1.00;;
20241;SDS011;10279;46.388;8.116;2023-10-19T03:54:48;1.30;;;1.20;;
20241;SDS011;10279;46.388;8.116;2023-10-19T03:57:16;1.90;;;1.20;;
20241;SDS011;10279;46.388;8.116;2023-10-19T03:59:50;3.83;;;1.40;;
20241;SDS011;10279;46.388;8.116;2023-10-19T04:02:24;2.67;;;1.37;;
20241;SDS011;10279;46.388;8.116;2023-10-19T04:04:53;1.30;;;1.17;;
20241;SDS011;10279;46.388;8.116;2023-10-19T04:07:22;3.57;;;1.60;;
20241;SDS011;10279;46.388;8.116;2023-10-19T04:09:53;3.40;;;1.60;;
20241;SDS011;10279;46.388;8.116;2023-10-19T04:12:34;1.37;;;1.10;;
20241;SDS011;10279;46.388;8.116;2023-10-19T04:15:04;3.07;;;1.73;;
20241;SDS011;10279;46.388;8.116;2023-10-19T04:17:45;3.13;;;1.50;;
20241;SDS011;10279;46.388;8.116;2023-10-19T04:20:14;4.07;;;1.10;;
20241;SDS011;10279;46.388;8.116;2023-10-19T04:22:49;1.83;;;1.03;;
20241;SDS011;10279;46.388;8.116;2023-10-19T04:25:17;1.17;;;1.00;;
20241;SDS011;10279;46.388;8.116;2023-10-19T04:27:47;4.93;;;2.60;;
20241;SDS011;10279;46.388;8.116;2023-10-19T04:30:18;1.87;;;1.20;;
20241;SDS011;10279;46.388;8.116;2023-10-19T04:32:49;3.37;;;1.30;;
20241;SDS011;10279;46.388;8.116;2023-10-19T04:35:17;1.77;;;1.30;;
20241;SDS011;10279;46.388;8.116;2023-10-19T04:37:51;1.90;;;1.07;;
20241;SDS011;10279;46.388;8.116;2023-10-19T04:40:20;2.93;;;1.43;;
20241;SDS011;10279;46.388;8.116;2023-10-19T04:42:56;2.70;;;1.40;;
20241;SDS011;10279;46.388;8.116;2023-10-19T04:45:23;3.70;;;1.20;;
20241;SDS011;10279;46.388;8.116;2023-10-19T04:47:51;5.77;;;1.40;;
20241;SDS011;10279;46.388;8.116;2023-10-19T04:50:19;4.77;;;1.23;;
20241;SDS011;10279;46.388;8.116;2023-10-19T04:52:47;2.20;;;1.43;;
20241;SDS011;10279;46.388;8.116;2023-10-19T04:55:14;1.80;;;1.20;;
20241;SDS011;10279;46.388;8.116;2023-10-19T04:57:41;1.50;;;1.40;;
20241;SDS011;10279;46.388;8.116;2023-10-19T05:00:09;3.17;;;1.27;;
20241;SDS011;10279;46.388;8.116;2023-10-19T05:02:41;2.43;;;1.20;;
20241;SDS011;10279;46.388;8.116;2023-10-19T05:05:09;3.57;;;1.20;;
20241;SDS011;10279;46.388;8.116;2023-10-19T05:07:37;4.17;;;1.27;;
20241;SDS011;10279;46.388;8.116;2023-10-19T05:10:05;2.60;;;1.20;;
20241;SDS011;10279;46.388;8.116;2023-10-19T05:12:33;3.13;;;1.40;;
20241;SDS011;10279;46.388;8.116;2023-10-19T05:15:00;3.57;;;1.00;;
20241;SDS011;10279;46.388;8.116;2023-10-19T05:17:27;2.20;;;1.53;;
20241;SDS011;10279;46.388;8.116;2023-10-19T05:19:55;5.67;;;1.23;;
20241;SDS011;10279;46.388;8.116;2023-10-19T05:22:23;4.70;;;1.63;;
20241;SDS011;10279;46.388;8.116;2023-10-19T05:24:56;3.07;;;1.30;;
20241;SDS011;10279;46.388;8.116;2023-10-19T05:27:23;1.77;;;1.37;;
20241;SDS011;10279;46.388;8.116;2023-10-19T05:29:51;2.27;;;1.80;;
20241;SDS011;10279;46.388;8.116;2023-10-19T05:32:19;2.30;;;1.30;;
20241;SDS011;10279;46.388;8.116;2023-10-19T05:34:46;2.13;;;1.10;;
20241;SDS011;10279;46.388;8.116;2023-10-19T05:37:14;2.17;;;1.23;;
20241;SDS011;10279;46.388;8.116;2023-10-19T05:39:43;5.80;;;1.50;;
20241;SDS011;10279;46.388;8.116;2023-10-19T05:42:11;5.73;;;1.40;;
20241;SDS011;10279;46.388;8.116;2023-10-19T05:44:38;4.40;;;1.43;;
20241;SDS011;10279;46.388;8.116;2023-10-19T05:47:05;2.87;;;1.30;;
20241;SDS011;10279;46.388;8.116;2023-10-19T05:49:33;3.73;;;1.93;;
20241;SDS011;10279;46.388;8.116;2023-10-19T05:52:01;1.70;;;1.50;;
20241;SDS011;10279;46.388;8.116;2023-10-19T05:54:30;3.27;;;1.73;;
20241;SDS011;10279;46.388;8.116;2023-10-19T05:56:57;2.30;;;1.40;;
20241;SDS011;10279;46.388;8.116;2023-10-19T05:59:25;2.10;;;1.60;;
20241;SDS011;10279;46.388;8.116;2023-10-19T06:01:53;3.33;;;1.23;;
20241;SDS011;10279;46.388;8.116;2023-10-19T06:04:21;1.90;;;1.57;;
20241;SDS011;10279;46.388;8.116;2023-10-19T06:06:48;1.47;;;1.07;;
20241;SDS011;10279;46.388;8.116;2023-10-19T06:09:16;2.13;;;1.20;;
20241;SDS011;10279;46.388;8.116;2023-10-19T06:11:44;3.80;;;1.33;;
20241;SDS011;10279;46.388;8.116;2023-10-19T06:14:12;3.97;;;1.60;;
20241;SDS011;10279;46.388;8.116;2023-10-19T06:16:39;3.30;;;1.70;;
20241;SDS011;10279;46.388;8.116;2023-10-19T06:19:07;3.93;;;2.70;;
20241;SDS011;10279;46.388;8.116;2023-10-19T06:21:36;2.00;;;1.13;;
20241;SDS011;10279;46.388;8.116;2023-10-19T06:24:03;3.93;;;1.30;;
20241;SDS011;10279;46.388;8.116;2023-10-19T06:26:31;3.10;;;1.43;;
20241;SDS011;10279;46.388;8.116;2023-10-19T06:28:58;7.57;;;1.30;;
20241;SDS011;10279;46.388;8.116;2023-10-19T06:31:26;3.60;;;1.17;;
20241;SDS011;10279;46.388;8.116;2023-10-19T06:33:56;1.60;;;1.30;;
20241;SDS011;10279;46.388;8.116;2023-10-19T06:36:24;2.50;;;1.40;;
20241;SDS011;10279;46.388;8.116;2023-10-19T06:38:52;6.83;;;1.67;;
20241;SDS011;10279;46.388;8.116;2023-10-19T06:41:21;1.97;;;1.60;;
20241;SDS011;10279;46.388;8.116;2023-10-19T06:43:49;3.43;;;1.37;;
20241;SDS011;10279;46.388;8.116;2023-10-19T06:46:17;3.13;;;1.60;;
20241;SDS011;10279;46.388;8.116;2023-10-19T06:48:44;1.93;;;1.30;;
20241;SDS011;10279;46.388;8.116;2023-10-19T06:51:12;2.27;;;1.10;;
20241;SDS011;10279;46.388;8.116;2023-10-19T06:53:39;3.30;;;1.53;;
20241;SDS011;10279;46.388;8.116;2023-10-19T06:56:07;3.30;;;1.67;;
20241;SDS011;10279;46.388;8.116;2023-10-19T06:58:35;3.07;;;1.30;;
20241;SDS011;10279;46.388;8.116;2023-10-19T07:01:06;2.93;;;1.63;;
20241;SDS011;10279;46.388;8.116;2023-10-19T07:03:35;2.37;;;1.27;;
20241;SDS011;10279;46.388;8.116;2023-10-19T07:06:03;3.93;;;1.47;;
20241;SDS011;10279;46.388;8.116;2023-10-19T07:08:39;3.10;;;1.00;;
20241;SDS011;10279;46.388;8.116;2023-10-19T07:11:09;3.23;;;1.03;;
20241;SDS011;10279;46.388;8.116;2023-10-19T07:13:37;4.80;;;1.50;;
20241;SDS011;10279;46.388;8.116;2023-10-19T07:16:06;2.00;;;1.30;;
20241;SDS011;10279;46.388;8.116;2023-10-19T07:18:37;2.50;;;1.53;;
20241;SDS011;10279;46.388;8.116;2023-10-19T07:21:06;2.50;;;1.50;;
20241;SDS011;10279;46.388;8.116;2023-10-19T07:23:36;1.93;;;1.40;;
20241;SDS011;10279;46.388;8.116;2023-10-19T07:26:07;5.50;;;2.40;;
20241;SDS011;10279;46.388;8.116;2023-10-19T07:28:35;6.67;;;2.40;;
20241;SDS011;10279;46.388;8.116;2023-10-19T07:31:04;5.00;;;1.83;;
20241;SDS011;10279;46.388;8.116;2023-10-19T07:33:42;4.20;;;1.60;;
20241;SDS011;10279;46.388;8.116;2023-10-19T07:36:13;3.70;;;1.93;;
20241;SDS011;10279;46.388;8.116;2023-10-19T07:38:45;2.63;;;1.83;;
20241;SDS011;10279;46.388;8.116;2023-10-19T07:41:14;2.47;;;1.90;;
20241;SDS011;10279;46.388;8.116;2023-10-19T07:43:41;3.90;;;1.60;;
20241;SDS011;10279;46.388;8.116;2023-10-19T07:46:11;3.87;;;1.20;;
20241;SDS011;10279;46.388;8.116;2023-10-19T07:48:38;1.40;;;1.13;;
20241;SDS011;10279;46.388;8.116;2023-10-19T07:51:06;1.40;;;0.97;;
20241;SDS011;10279;46.388;8.116;2023-10-19T07:53:37;2.30;;;1.30;;
20241;SDS011;10279;46.388;8.116;2023-10-19T07:56:05;3.00;;;1.30;;
20241;SDS011;10279;46.388;8.116;2023-10-19T07:58:32;3.00;;;1.60;;
20241;SDS011;10279;46.388;8.116;2023-10-19T08:01:00;2.57;;;1.40;;
20241;SDS011;10279;46.388;8.116;2023-10-19T08:03:28;1.50;;;1.37;;
20241;SDS011;10279;46.388;8.116;2023-10-19T08:05:56;4.60;;;1.37;;
20241;SDS011;10279;46.388;8.116;2023-10-19T08:08:23;4.00;;;1.30;;
20241;SDS011;10279;46.388;8.116;2023-10-19T08:10:51;1.70;;;1.10;;
20241;SDS011;10279;46.388;8.116;2023-10-19T08:13:18;2.20;;;1.23;;
20241;SDS011;10279;46.388;8.116;2023-10-19T08:15:46;3.17;;;1.30;;
20241;SDS011;10279;46.388;8.116;2023-10-19T08:18:13;3.90;;;1.37;;
20241;SDS011;10279;46.388;8.116;2023-10-19T08:20:41;1.60;;;1.17;;
20241;SDS011;10279;46.388;8.116;2023-10-19T08:23:12;2.27;;;1.53;;
20241;SDS011;10279;46.388;8.116;2023-10-19T08:25:49;1.60;;;1.00;;
20241;SDS011;10279;46.388;8.116;2023-10-19T08:28:23;3.03;;;1.20;;
20241;SDS011;10279;46.388;8.116;2023-10-19T08:30:51;1.10;;;1.00;;
20241;SDS011;10279;46.388;8.116;2023-10-19T08:33:28;3.20;;;1.30;;
20241;SDS011;10279;46.388;8.116;2023-10-19T08:35:56;2.77;;;1.37;;
20241;SDS011;10279;46.388;8.116;2023-10-19T08:38:24;3.38;;;1.50;;
20241;SDS011;10279;46.388;8.116;2023-10-19T08:40:52;4.07;;;2.00;;
20241;SDS011;10279;46.388;8.116;2023-10-19T08:43:21;2.17;;;1.40;;
20241;SDS011;10279;46.388;8.116;2023-10-19T08:45:51;2.75;;;1.30;;
20241;SDS011;10279;46.388;8.116;2023-10-19T08:48:20;3.03;;;1.60;;
20241;SDS011;10279;46.388;8.116;2023-10-19T08:50:47;1.80;;;1.20;;
20241;SDS011;10279;46.388;8.116;2023-10-19T08:53:15;3.47;;;1.10;;
20241;SDS011;10279;46.388;8.116;2023-10-19T08:55:46;3.83;;;1.50;;
20241;SDS011;10279;46.388;8.116;2023-10-19T08:58:17;1.73;;;1.23;;
20241;SDS011;10279;46.388;8.116;2023-10-19T09:00:49;2.13;;;1.40;;
20241;SDS011;10279;46.388;8.116;2023-10-19T09:03:23;6.05;;;1.88;;
20241;SDS011;10279;46.388;8.116;2023-10-19T09:05:52;2.42;;;1.25;;
20241;SDS011;10279;46.388;8.116;2023-10-19T09:08:21;2.97;;;1.45;;
20241;SDS011;10279;46.388;8.116;2023-10-19T09:10:49;1.70;;;1.23;;
20241;SDS011;10279;46.388;8.116;2023-10-19T09:13:22;4.18;;;1.30;;
20241;SDS011;10279;46.388;8.116;2023-10-19T09:15:51;1.33;;;0.98;;
20241;SDS011;10279;46.388;8.116;2023-10-19T09:18:24;2.40;;;1.40;;
20241;SDS011;10279;46.388;8.116;2023-10-19T09:20:57;1.45;;;1.35;;
20241;SDS011;10279;46.388;8.116;2023-10-19T09:23:35;3.30;;;1.20;;
20241;SDS011;10279;46.388;8.116;2023-10-19T09:26:03;3.40;;;1.10;;
20241;SDS011;10279;46.388;8.116;2023-10-19T09:28:36;1.77;;;0.98;;
20241;SDS011;10279;46.388;8.116;2023-10-19T09:31:05;3.63;;;1.10;;
20241;SDS011;10279;46.388;8.116;2023-10-19T09:33:37;2.42;;;1.85;;
20241;SDS011;10279;46.388;8.116;2023-10-19T09:36:07;1.23;;;1.13;;
20241;SDS011;10279;46.388;8.116;2023-10-19T09:41:15;2.35;;;1.00;;
20241;SDS011;10279;46.388;8.116;2023-10-19T09:43:44;3.10;;;1.23;;
20241;SDS011;10279;46.388;8.116;2023-10-19T09:46:23;3.65;;;1.02;;
20241;SDS011;10279;46.388;8.116;2023-10-19T09:48:56;1.42;;;0.70;;
20241;SDS011;10279;46.388;8.116;2023-10-19T09:51:24;1.48;;;1.38;;
20241;SDS011;10279;46.388;8.116;2023-10-19T09:54:00;1.13;;;1.02;;
20241;SDS011;10279;46.388;8.116;2023-10-19T09:56:36;0.20;;;0.20;;
20241;SDS011;10279;46.388;8.116;2023-10-19T09:59:13;1.02;;;0.47;;
20241;SDS011;10279;46.388;8.116;2023-10-19T10:02:05;1.05;;;0.63;;
20241;SDS011;10279;46.388;8.116;2023-10-19T10:04:41;1.30;;;1.08;;
20241;SDS011;10279;46.388;8.116;2023-10-19T10:07:13;0.73;;;0.20;;
20241;SDS011;10279;46.388;8.116;2023-10-19T10:10:01;0.30;;;0.30;;
20241;SDS011;10279;46.388;8.116;2023-10-19T10:12:31;1.88;;;0.60;;
20241;SDS011;10279;46.388;8.116;2023-10-19T10:15:05;1.48;;;0.80;;
20241;SDS011;10279;46.388;8.116;2023-10-19T10:17:37;1.98;;;1.15;;
20241;SDS011;10279;46.388;8.116;2023-10-19T10:22:42;2.00;;;0.85;;
20241;SDS011;10279;46.388;8.116;2023-10-19T10:25:31;1.55;;;0.82;;
20241;SDS011;10279;46.388;8.116;2023-10-19T10:27:58;2.53;;;0.88;;
20241;SDS011;10279;46.388;8.116;2023-10-19T10:30:26;1.77;;;1.30;;
20241;SDS011;10279;46.388;8.116;2023-10-19T10:32:55;2.13;;;1.15;;
20241;SDS011;10279;46.388;8.116;2023-10-19T10:38:06;2.80;;;1.40;;
20241;SDS011;10279;46.388;8.116;2023-10-19T10:40:48;3.63;;;1.33;;
20241;SDS011;10279;46.388;8.116;2023-10-19T10:43:17;1.00;;;0.90;;
20241;SDS011;10279;46.388;8.116;2023-10-19T10:45:45;0.98;;;0.80;;
20241;SDS011;10279;46.388;8.116;2023-10-19T10:50:44;0.88;;;0.80;;
20241;SDS011;10279;46.388;8.116;2023-10-19T10:53:14;0.70;;;0.70;;
20241;SDS011;10279;46.388;8.116;2023-10-19T10:55:42;1.63;;;1.25;;
20241;SDS011;10279;46.388;8.116;2023-10-19T10:58:14;0.88;;;0.40;;
20241;SDS011;10279;46.388;8.116;2023-10-19T11:00:45;1.05;;;0.95;;
20241;SDS011;10279;46.388;8.116;2023-10-19T11:03:15;1.98;;;0.90;;
20241;SDS011;10279;46.388;8.116;2023-10-19T11:05:43;0.73;;;0.60;;
20241;SDS011;10279;46.388;8.116;2023-10-19T11:08:13;0.20;;;0.20;;
20241;SDS011;10279;46.388;8.116;2023-10-19T11:10:45;0.22;;;0.22;;
20241;SDS011;10279;46.388;8.116;2023-10-19T11:13:23;0.43;;;0.30;;
20241;SDS011;10279;46.388;8.116;2023-10-19T11:15:55;0.20;;;0.20;;
20241;SDS011;10279;46.388;8.116;2023-10-19T11:21:05;0.45;;;0.20;;
20241;SDS011;10279;46.388;8.116;2023-10-19T11:23:40;0.30;;;0.25;;
20241;SDS011;10279;46.388;8.116;2023-10-19T11:26:14;0.93;;;0.40;;
20241;SDS011;10279;46.388;8.116;2023-10-19T11:28:43;0.55;;;0.45;;
20241;SDS011;10279;46.388;8.116;2023-10-19T11:31:21;0.30;;;0.30;;
20241;SDS011;10279;46.388;8.116;2023-10-19T11:33:50;0.20;;;0.20;;
20241;SDS011;10279;46.388;8.116;2023-10-19T11:36:19;0.20;;;0.20;;
20241;SDS011;10279;46.388;8.116;2023-10-19T11:38:49;0.30;;;0.30;;
20241;SDS011;10279;46.388;8.116;2023-10-19T11:41:21;0.20;;;0.20;;
20241;SDS011;10279;46.388;8.116;2023-10-19T11:43:49;0.20;;;0.20;;
20241;SDS011;10279;46.388;8.116;2023-10-19T11:46:17;0.93;;;0.40;;
20241;SDS011;10279;46.388;8.116;2023-10-19T11:48:45;1.50;;;0.70;;
20241;SDS011;10279;46.388;8.116;2023-10-19T11:51:13;0.15;;;0.15;;
20241;SDS011;10279;46.388;8.116;2023-10-19T11:53:41;0.40;;;0.30;;
20241;SDS011;10279;46.388;8.116;2023-10-19T11:56:10;0.75;;;0.30;;
20241;SDS011;10279;46.388;8.116;2023-10-19T11:58:42;0.30;;;0.20;;
20241;SDS011;10279;46.388;8.116;2023-10-19T12:01:14;0.30;;;0.30;;
20241;SDS011;10279;46.388;8.116;2023-10-19T12:03:44;0.43;;;0.20;;
20241;SDS011;10279;46.388;8.116;2023-10-19T12:06:13;0.20;;;0.20;;
20241;SDS011;10279;46.388;8.116;2023-10-19T12:08:50;0.32;;;0.30;;
20241;SDS011;10279;46.388;8.116;2023-10-19T12:11:18;0.45;;;0.40;;
20241;SDS011;10279;46.388;8.116;2023-10-19T12:13:46;0.20;;;0.20;;
20241;SDS011;10279;46.388;8.116;2023-10-19T12:16:14;0.35;;;0.20;;
20241;SDS011;10279;46.388;8.116;2023-10-19T12:18:44;0.30;;;0.20;;
20241;SDS011;10279;46.388;8.116;2023-10-19T12:21:13;0.28;;;0.20;;
20241;SDS011;10279;46.388;8.116;2023-10-19T12:23:42;0.30;;;0.30;;
20241;SDS011;10279;46.388;8.116;2023-10-19T12:26:10;0.43;;;0.20;;
20241;SDS011;10279;46.388;8.116;2023-10-19T12:28:38;0.43;;;0.30;;
20241;SDS011;10279;46.388;8.116;2023-10-19T12:31:07;0.40;;;0.25;;
20241;SDS011;10279;46.388;8.116;2023-10-19T12:33:39;0.40;;;0.40;;
20241;SDS011;10279;46.388;8.116;2023-10-19T12:36:08;0.20;;;0.20;;
20241;SDS011;10279;46.388;8.116;2023-10-19T12:38:54;0.55;;;0.20;;
20241;SDS011;10279;46.388;8.116;2023-10-19T12:41:22;0.30;;;0.30;;
20241;SDS011;10279;46.388;8.116;2023-10-19T12:43:50;0.20;;;0.20;;
20241;SDS011;10279;46.388;8.116;2023-10-19T12:46:19;0.30;;;0.30;;
20241;SDS011;10279;46.388;8.116;2023-10-19T12:48:52;0.10;;;0.10;;
20241;SDS011;10279;46.388;8.116;2023-10-19T12:51:22;0.47;;;0.30;;
20241;SDS011;10279;46.388;8.116;2023-10-19T12:53:50;0.30;;;0.30;;
20241;SDS011;10279;46.388;8.116;2023-10-19T12:56:18;0.30;;;0.30;;
20241;SDS011;10279;46.388;8.116;2023-10-19T12:58:55;0.32;;;0.32;;
20241;SDS011;10279;46.388;8.116;2023-10-19T13:01:23;0.32;;;0.20;;
20241;SDS011;10279;46.388;8.116;2023-10-19T13:03:50;0.30;;;0.20;;
20241;SDS011;10279;46.388;8.116;2023-10-19T13:06:18;0.57;;;0.20;;
20241;SDS011;10279;46.388;8.116;2023-10-19T13:08:46;0.25;;;0.25;;
20241;SDS011;10279;46.388;8.116;2023-10-19T13:11:14;1.08;;;0.20;;
20241;SDS011;10279;46.388;8.116;2023-10-19T13:13:44;0.30;;;0.30;;
20241;SDS011;10279;46.388;8.116;2023-10-19T13:16:14;0.17;;;0.17;;
20241;SDS011;10279;46.388;8.116;2023-10-19T13:18:43;0.50;;;0.30;;
20241;SDS011;10279;46.388;8.116;2023-10-19T13:21:10;0.52;;;0.43;;
20241;SDS011;10279;46.388;8.116;2023-10-19T13:23:43;1.00;;;0.30;;
20241;SDS011;10279;46.388;8.116;2023-10-19T13:26:12;0.38;;;0.28;;
20241;SDS011;10279;46.388;8.116;2023-10-19T13:28:43;0.30;;;0.28;;
20241;SDS011;10279;46.388;8.116;2023-10-19T13:31:12;1.27;;;0.20;;
20241;SDS011;10279;46.388;8.116;2023-10-19T13:33:45;0.40;;;0.40;;
20241;SDS011;10279;46.388;8.116;2023-10-19T13:36:14;0.55;;;0.25;;
20241;SDS011;10279;46.388;8.116;2023-10-19T13:38:42;1.65;;;0.38;;
20241;SDS011;10279;46.388;8.116;2023-10-19T13:41:11;0.30;;;0.30;;
20241;SDS011;10279;46.388;8.116;2023-10-19T13:43:40;0.73;;;0.70;;
20241;SDS011;10279;46.388;8.116;2023-10-19T13:46:09;0.50;;;0.40;;
20241;SDS011;10279;46.388;8.116;2023-10-19T13:48:36;0.30;;;0.30;;
20241;SDS011;10279;46.388;8.116;2023-10-19T13:51:06;0.32;;;0.32;;
20241;SDS011;10279;46.388;8.116;2023-10-19T13:53:43;0.30;;;0.30;;
20241;SDS011;10279;46.388;8.116;2023-10-19T13:56:13;0.40;;;0.38;;
20241;SDS011;10279;46.388;8.116;2023-10-19T13:58:41;0.77;;;0.63;;
20241;SDS011;10279;46.388;8.116;2023-10-19T14:01:09;0.20;;;0.20;;
20241;SDS011;10279;46.388;8.116;2023-10-19T14:03:39;4.43;;;0.45;;
20241;SDS011;10279;46.388;8.116;2023-10-19T14:06:11;1.75;;;0.40;;
20241;SDS011;10279;46.388;8.116;2023-10-19T14:08:40;0.75;;;0.47;;
20241;SDS011;10279;46.388;8.116;2023-10-19T14:11:08;0.30;;;0.30;;
20241;SDS011;10279;46.388;8.116;2023-10-19T14:13:36;0.13;;;0.13;;
20241;SDS011;10279;46.388;8.116;2023-10-19T14:16:06;2.00;;;0.30;;
20241;SDS011;10279;46.388;8.116;2023-10-19T14:18:38;0.32;;;0.20;;
20241;SDS011;10279;46.388;8.116;2023-10-19T14:21:15;0.10;;;0.10;;
20241;SDS011;10279;46.388;8.116;2023-10-19T14:23:45;0.20;;;0.20;;
20241;SDS011;10279;46.388;8.116;2023-10-19T14:26:12;0.57;;;0.30;;
20241;SDS011;10279;46.388;8.116;2023-10-19T14:28:41;0.88;;;0.28;;
20241;SDS011;10279;46.388;8.116;2023-10-19T14:31:08;1.95;;;0.30;;
20241;SDS011;10279;46.388;8.116;2023-10-19T14:33:37;0.68;;;0.32;;
20241;SDS011;10279;46.388;8.116;2023-10-19T14:36:05;4.90;;;0.60;;
20241;SDS011;10279;46.388;8.116;2023-10-19T14:38:33;2.33;;;0.28;;
20241;SDS011;10279;46.388;8.116;2023-10-19T14:41:02;0.28;;;0.20;;
20241;SDS011;10279;46.388;8.116;2023-10-19T14:43:30;0.20;;;0.20;;
20241;SDS011;10279;46.388;8.116;2023-10-19T14:45:57;0.38;;;0.20;;
20241;SDS011;10279;46.388;8.116;2023-10-19T14:48:25;0.30;;;0.30;;
20241;SDS011;10279;46.388;8.116;2023-10-19T14:50:55;0.55;;;0.30;;
20241;SDS011;10279;46.388;8.116;2023-10-19T14:53:24;1.17;;;0.40;;
20241;SDS011;10279;46.388;8.116;2023-10-19T14:55:52;0.40;;;0.30;;
20241;SDS011;10279;46.388;8.116;2023-10-19T14:58:21;0.30;;;0.20;;
20241;SDS011;10279;46.388;8.116;2023-10-19T15:00:48;0.75;;;0.70;;
20241;SDS011;10279;46.388;8.116;2023-10-19T15:03:21;0.25;;;0.25;;
20241;SDS011;10279;46.388;8.116;2023-10-19T15:05:51;0.25;;;0.22;;
20241;SDS011;10279;46.388;8.116;2023-10-19T15:08:19;0.20;;;0.20;;
20241;SDS011;10279;46.388;8.116;2023-10-19T15:10:49;1.70;;;0.30;;
20241;SDS011;10279;46.388;8.116;2023-10-19T15:13:17;0.63;;;0.20;;
20241;SDS011;10279;46.388;8.116;2023-10-19T15:15:45;0.40;;;0.40;;
20241;SDS011;10279;46.388;8.116;2023-10-19T15:18:12;0.57;;;0.43;;
20241;SDS011;10279;46.388;8.116;2023-10-19T15:20:39;0.50;;;0.50;;
20241;SDS011;10279;46.388;8.116;2023-10-19T15:23:08;0.68;;;0.40;;
20241;SDS011;10279;46.388;8.116;2023-10-19T15:25:36;0.65;;;0.40;;
20241;SDS011;10279;46.388;8.116;2023-10-19T15:28:06;0.30;;;0.30;;